<?xml version="1.0" encoding="utf-8"?>
<gpx xmlns:xsi="http://www.w3.org/2001/XMLSchema-instance" xmlns:xsd="http://www.w3.org/2001/XMLSchema" version="1.1" creator="Shapelink.com" xmlns="http://www.topografix.com/GPX/1/1" xmlns:gpxtpx="http://www.garmin.com/xmlschemas/TrackPointExtension/v1">
  <metadata>
    <name>Löpning 3.87 km, 2020-03-21</name>
    <desc></desc>
    <author><name>Alexander Engvall</name></author> 
    <time>2020-03-21T13:02:41Z</time>
  </metadata>
  <trk>
    <name>Löpning 3.87 km, 2020-03-21</name>
    <trkseg>
      <trkpt lat="59.219754869197" lon="17.907015806719">
        <ele>0</ele>
        <time>2020-03-21T13:02:41Z</time>
      </trkpt>
      <trkpt lat="59.219744978555" lon="17.907028044293">
        <ele>0</ele>
        <time>2020-03-21T13:02:42Z</time>
      </trkpt>
      <trkpt lat="59.219727628022" lon="17.907046316835">
        <ele>0</ele>
        <time>2020-03-21T13:02:43Z</time>
      </trkpt>
      <trkpt lat="59.219712037688" lon="17.907046484473">
        <ele>0</ele>
        <time>2020-03-21T13:02:44Z</time>
      </trkpt>
      <trkpt lat="59.219653532026" lon="17.906969957726">
        <ele>0</ele>
        <time>2020-03-21T13:02:48Z</time>
      </trkpt>
      <trkpt lat="59.21960039078" lon="17.906862920863">
        <ele>0.2</ele>
        <time>2020-03-21T13:02:52Z</time>
      </trkpt>
      <trkpt lat="59.219531323924" lon="17.90686233413">
        <ele>0</ele>
        <time>2020-03-21T13:02:56Z</time>
      </trkpt>
      <trkpt lat="59.21943862011" lon="17.906915643014">
        <ele>0</ele>
        <time>2020-03-21T13:03:00Z</time>
      </trkpt>
      <trkpt lat="59.219418838826" lon="17.906948332424">
        <ele>0</ele>
        <time>2020-03-21T13:03:01Z</time>
      </trkpt>
      <trkpt lat="59.219315322361" lon="17.907090740905">
        <ele>0</ele>
        <time>2020-03-21T13:03:07Z</time>
      </trkpt>
      <trkpt lat="59.219216164484" lon="17.90724622515">
        <ele>0</ele>
        <time>2020-03-21T13:03:13Z</time>
      </trkpt>
      <trkpt lat="59.219204429824" lon="17.907254858507">
        <ele>0</ele>
        <time>2020-03-21T13:03:14Z</time>
      </trkpt>
      <trkpt lat="59.219186911653" lon="17.907223761658">
        <ele>0</ele>
        <time>2020-03-21T13:03:16Z</time>
      </trkpt>
      <trkpt lat="59.219139973013" lon="17.907175649552">
        <ele>0</ele>
        <time>2020-03-21T13:03:18Z</time>
      </trkpt>
      <trkpt lat="59.219094291658" lon="17.907193670637">
        <ele>0</ele>
        <time>2020-03-21T13:03:20Z</time>
      </trkpt>
      <trkpt lat="59.219048610303" lon="17.907250499919">
        <ele>0</ele>
        <time>2020-03-21T13:03:22Z</time>
      </trkpt>
      <trkpt lat="59.218952721367" lon="17.907365499587">
        <ele>0</ele>
        <time>2020-03-21T13:03:27Z</time>
      </trkpt>
      <trkpt lat="59.21891475136" lon="17.907385951423">
        <ele>0</ele>
        <time>2020-03-21T13:03:29Z</time>
      </trkpt>
      <trkpt lat="59.218880972303" lon="17.907322835716">
        <ele>0</ele>
        <time>2020-03-21T13:03:31Z</time>
      </trkpt>
      <trkpt lat="59.21879824295" lon="17.907110689827">
        <ele>0</ele>
        <time>2020-03-21T13:03:37Z</time>
      </trkpt>
      <trkpt lat="59.218781730607" lon="17.907069450879">
        <ele>0</ele>
        <time>2020-03-21T13:03:38Z</time>
      </trkpt>
      <trkpt lat="59.218750382301" lon="17.906937268316">
        <ele>0</ele>
        <time>2020-03-21T13:03:40Z</time>
      </trkpt>
      <trkpt lat="59.21866664712" lon="17.906740628942">
        <ele>0</ele>
        <time>2020-03-21T13:03:43Z</time>
      </trkpt>
      <trkpt lat="59.218613338236" lon="17.906586150525">
        <ele>0</ele>
        <time>2020-03-21T13:03:45Z</time>
      </trkpt>
      <trkpt lat="59.218502697156" lon="17.906315498974">
        <ele>0</ele>
        <time>2020-03-21T13:03:49Z</time>
      </trkpt>
      <trkpt lat="59.21842692478" lon="17.906172336122">
        <ele>0</ele>
        <time>2020-03-21T13:03:52Z</time>
      </trkpt>
      <trkpt lat="59.218408233143" lon="17.906121206532">
        <ele>0</ele>
        <time>2020-03-21T13:03:53Z</time>
      </trkpt>
      <trkpt lat="59.21831544551" lon="17.905877963794">
        <ele>0</ele>
        <time>2020-03-21T13:03:59Z</time>
      </trkpt>
      <trkpt lat="59.218204720611" lon="17.905588452968">
        <ele>0</ele>
        <time>2020-03-21T13:04:06Z</time>
      </trkpt>
      <trkpt lat="59.218146550225" lon="17.905396256001">
        <ele>0</ele>
        <time>2020-03-21T13:04:11Z</time>
      </trkpt>
      <trkpt lat="59.218111178607" lon="17.905322411462">
        <ele>0</ele>
        <time>2020-03-21T13:04:13Z</time>
      </trkpt>
      <trkpt lat="59.218091732599" lon="17.90528486055">
        <ele>0</ele>
        <time>2020-03-21T13:04:14Z</time>
      </trkpt>
      <trkpt lat="59.218024342123" lon="17.905028625867">
        <ele>0</ele>
        <time>2020-03-21T13:04:20Z</time>
      </trkpt>
      <trkpt lat="59.217913784862" lon="17.904806589336">
        <ele>0</ele>
        <time>2020-03-21T13:04:26Z</time>
      </trkpt>
      <trkpt lat="59.217838683038" lon="17.904587821746">
        <ele>0</ele>
        <time>2020-03-21T13:04:31Z</time>
      </trkpt>
      <trkpt lat="59.217739357523" lon="17.904342902628">
        <ele>0</ele>
        <time>2020-03-21T13:04:37Z</time>
      </trkpt>
      <trkpt lat="59.217635170506" lon="17.904084740108">
        <ele>0</ele>
        <time>2020-03-21T13:04:44Z</time>
      </trkpt>
      <trkpt lat="59.217553698438" lon="17.903840742999">
        <ele>0</ele>
        <time>2020-03-21T13:04:50Z</time>
      </trkpt>
      <trkpt lat="59.217466275221" lon="17.903642678702">
        <ele>0</ele>
        <time>2020-03-21T13:04:55Z</time>
      </trkpt>
      <trkpt lat="59.217357729616" lon="17.903378732671">
        <ele>0</ele>
        <time>2020-03-21T13:05:02Z</time>
      </trkpt>
      <trkpt lat="59.217328392966" lon="17.903322238665">
        <ele>0</ele>
        <time>2020-03-21T13:05:04Z</time>
      </trkpt>
      <trkpt lat="59.217250525115" lon="17.903285023029">
        <ele>0</ele>
        <time>2020-03-21T13:05:07Z</time>
      </trkpt>
      <trkpt lat="59.217198557335" lon="17.903284017201">
        <ele>0</ele>
        <time>2020-03-21T13:05:09Z</time>
      </trkpt>
      <trkpt lat="59.217103590408" lon="17.903275551482">
        <ele>0</ele>
        <time>2020-03-21T13:05:13Z</time>
      </trkpt>
      <trkpt lat="59.217005103083" lon="17.903255267284">
        <ele>0</ele>
        <time>2020-03-21T13:05:18Z</time>
      </trkpt>
      <trkpt lat="59.216991692043" lon="17.903232468516">
        <ele>0</ele>
        <time>2020-03-21T13:05:19Z</time>
      </trkpt>
      <trkpt lat="59.21693829934" lon="17.903126018386">
        <ele>0</ele>
        <time>2020-03-21T13:05:22Z</time>
      </trkpt>
      <trkpt lat="59.21690058079" lon="17.903006492492">
        <ele>0</ele>
        <time>2020-03-21T13:05:25Z</time>
      </trkpt>
      <trkpt lat="59.216883649352" lon="17.902870621893">
        <ele>0</ele>
        <time>2020-03-21T13:05:28Z</time>
      </trkpt>
      <trkpt lat="59.2168829788" lon="17.902770542007">
        <ele>0</ele>
        <time>2020-03-21T13:05:30Z</time>
      </trkpt>
      <trkpt lat="59.216850121752" lon="17.902588822415">
        <ele>0</ele>
        <time>2020-03-21T13:05:34Z</time>
      </trkpt>
      <trkpt lat="59.216789604434" lon="17.902346585505">
        <ele>0</ele>
        <time>2020-03-21T13:05:40Z</time>
      </trkpt>
      <trkpt lat="59.216715676076" lon="17.902162183705">
        <ele>0</ele>
        <time>2020-03-21T13:05:45Z</time>
      </trkpt>
      <trkpt lat="59.216667061056" lon="17.90199580299">
        <ele>0</ele>
        <time>2020-03-21T13:05:50Z</time>
      </trkpt>
      <trkpt lat="59.216650213437" lon="17.901893711448">
        <ele>0</ele>
        <time>2020-03-21T13:05:54Z</time>
      </trkpt>
      <trkpt lat="59.216645938668" lon="17.901868230472">
        <ele>0</ele>
        <time>2020-03-21T13:05:55Z</time>
      </trkpt>
      <trkpt lat="59.216628336678" lon="17.901633118177">
        <ele>0</ele>
        <time>2020-03-21T13:06:00Z</time>
      </trkpt>
      <trkpt lat="59.216583409694" lon="17.901409321447">
        <ele>0</ele>
        <time>2020-03-21T13:06:05Z</time>
      </trkpt>
      <trkpt lat="59.216577374726" lon="17.901370261793">
        <ele>0</ele>
        <time>2020-03-21T13:06:06Z</time>
      </trkpt>
      <trkpt lat="59.216537560701" lon="17.901251238813">
        <ele>0</ele>
        <time>2020-03-21T13:06:09Z</time>
      </trkpt>
      <trkpt lat="59.216511576811" lon="17.901182171957">
        <ele>0</ele>
        <time>2020-03-21T13:06:11Z</time>
      </trkpt>
      <trkpt lat="59.216448712561" lon="17.901016964708">
        <ele>0</ele>
        <time>2020-03-21T13:06:16Z</time>
      </trkpt>
      <trkpt lat="59.216352823625" lon="17.900784366983">
        <ele>0</ele>
        <time>2020-03-21T13:06:22Z</time>
      </trkpt>
      <trkpt lat="59.216265735684" lon="17.900578004605">
        <ele>0</ele>
        <time>2020-03-21T13:06:28Z</time>
      </trkpt>
      <trkpt lat="59.216188538385" lon="17.900445067671">
        <ele>0</ele>
        <time>2020-03-21T13:06:33Z</time>
      </trkpt>
      <trkpt lat="59.216093655277" lon="17.900307101597">
        <ele>0</ele>
        <time>2020-03-21T13:06:39Z</time>
      </trkpt>
      <trkpt lat="59.216025845706" lon="17.900202830761">
        <ele>0</ele>
        <time>2020-03-21T13:06:44Z</time>
      </trkpt>
      <trkpt lat="59.215943535448" lon="17.900102415599">
        <ele>0</ele>
        <time>2020-03-21T13:06:48Z</time>
      </trkpt>
      <trkpt lat="59.215825518296" lon="17.900068049809">
        <ele>0</ele>
        <time>2020-03-21T13:06:54Z</time>
      </trkpt>
      <trkpt lat="59.215780339855" lon="17.900193359214">
        <ele>0</ele>
        <time>2020-03-21T13:06:58Z</time>
      </trkpt>
      <trkpt lat="59.215746560798" lon="17.900344652509">
        <ele>0</ele>
        <time>2020-03-21T13:07:03Z</time>
      </trkpt>
      <trkpt lat="59.215742369848" lon="17.900374827349">
        <ele>0</ele>
        <time>2020-03-21T13:07:04Z</time>
      </trkpt>
      <trkpt lat="59.215719235804" lon="17.900475577787">
        <ele>0</ele>
        <time>2020-03-21T13:07:07Z</time>
      </trkpt>
      <trkpt lat="59.215718900528" lon="17.900503573333">
        <ele>0</ele>
        <time>2020-03-21T13:07:08Z</time>
      </trkpt>
      <trkpt lat="59.21570783642" lon="17.900539950779">
        <ele>0</ele>
        <time>2020-03-21T13:07:09Z</time>
      </trkpt>
      <trkpt lat="59.215713536112" lon="17.900567191954">
        <ele>0</ele>
        <time>2020-03-21T13:07:10Z</time>
      </trkpt>
      <trkpt lat="59.215733568853" lon="17.90071337229">
        <ele>0</ele>
        <time>2020-03-21T13:07:13Z</time>
      </trkpt>
      <trkpt lat="59.215772963783" lon="17.900962566177">
        <ele>1</ele>
        <time>2020-03-21T13:07:18Z</time>
      </trkpt>
      <trkpt lat="59.21578914085" lon="17.901060550588">
        <ele>2.4</ele>
        <time>2020-03-21T13:07:21Z</time>
      </trkpt>
      <trkpt lat="59.215794253809" lon="17.901078571673">
        <ele>2.8</ele>
        <time>2020-03-21T13:07:22Z</time>
      </trkpt>
      <trkpt lat="59.215805569374" lon="17.901173706238">
        <ele>3.2</ele>
        <time>2020-03-21T13:07:25Z</time>
      </trkpt>
      <trkpt lat="59.21581261017" lon="17.901251154994">
        <ele>3.4</ele>
        <time>2020-03-21T13:07:27Z</time>
      </trkpt>
      <trkpt lat="59.215819902423" lon="17.901279485816">
        <ele>3.6</ele>
        <time>2020-03-21T13:07:28Z</time>
      </trkpt>
      <trkpt lat="59.215837001499" lon="17.901305385887">
        <ele>4</ele>
        <time>2020-03-21T13:07:29Z</time>
      </trkpt>
      <trkpt lat="59.215860051724" lon="17.901403454117">
        <ele>4.6</ele>
        <time>2020-03-21T13:07:32Z</time>
      </trkpt>
      <trkpt lat="59.215880252103" lon="17.901401693918">
        <ele>4.6</ele>
        <time>2020-03-21T13:07:33Z</time>
      </trkpt>
      <trkpt lat="59.215896345351" lon="17.901468497661">
        <ele>5</ele>
        <time>2020-03-21T13:07:35Z</time>
      </trkpt>
      <trkpt lat="59.215925262906" lon="17.901520884536">
        <ele>5.8</ele>
        <time>2020-03-21T13:07:37Z</time>
      </trkpt>
      <trkpt lat="59.215925262906" lon="17.90153982763">
        <ele>5.8</ele>
        <time>2020-03-21T13:07:38Z</time>
      </trkpt>
      <trkpt lat="59.215936159376" lon="17.901600428767">
        <ele>6.2</ele>
        <time>2020-03-21T13:07:39Z</time>
      </trkpt>
      <trkpt lat="59.215971195718" lon="17.901680224455">
        <ele>6.8</ele>
        <time>2020-03-21T13:07:42Z</time>
      </trkpt>
      <trkpt lat="59.215992737201" lon="17.901727833647">
        <ele>7.4</ele>
        <time>2020-03-21T13:07:44Z</time>
      </trkpt>
      <trkpt lat="59.21602467224" lon="17.901853478328">
        <ele>7.8</ele>
        <time>2020-03-21T13:07:48Z</time>
      </trkpt>
      <trkpt lat="59.216028779371" lon="17.90189186743">
        <ele>8.2</ele>
        <time>2020-03-21T13:07:49Z</time>
      </trkpt>
      <trkpt lat="59.216053422157" lon="17.902042657811">
        <ele>9</ele>
        <time>2020-03-21T13:07:53Z</time>
      </trkpt>
      <trkpt lat="59.216074460726" lon="17.902106611708">
        <ele>9.6</ele>
        <time>2020-03-21T13:07:55Z</time>
      </trkpt>
      <trkpt lat="59.216083596997" lon="17.902145839">
        <ele>9.6</ele>
        <time>2020-03-21T13:07:56Z</time>
      </trkpt>
      <trkpt lat="59.216091643621" lon="17.902223958308">
        <ele>10.2</ele>
        <time>2020-03-21T13:07:58Z</time>
      </trkpt>
      <trkpt lat="59.216094996381" lon="17.902267963283">
        <ele>10.4</ele>
        <time>2020-03-21T13:07:59Z</time>
      </trkpt>
      <trkpt lat="59.216111173448" lon="17.902421519691">
        <ele>10.6</ele>
        <time>2020-03-21T13:08:03Z</time>
      </trkpt>
      <trkpt lat="59.216114190932" lon="17.902469967073">
        <ele>10.4</ele>
        <time>2020-03-21T13:08:04Z</time>
      </trkpt>
      <trkpt lat="59.216148389084" lon="17.902724776833">
        <ele>10.8</ele>
        <time>2020-03-21T13:08:10Z</time>
      </trkpt>
      <trkpt lat="59.216168254187" lon="17.902839944139">
        <ele>11.2</ele>
        <time>2020-03-21T13:08:13Z</time>
      </trkpt>
      <trkpt lat="59.21617638463" lon="17.902954943807">
        <ele>11</ele>
        <time>2020-03-21T13:08:16Z</time>
      </trkpt>
      <trkpt lat="59.216164733789" lon="17.903153008104">
        <ele>11.2</ele>
        <time>2020-03-21T13:08:21Z</time>
      </trkpt>
      <trkpt lat="59.216125171221" lon="17.903314862593">
        <ele>11.4</ele>
        <time>2020-03-21T13:08:26Z</time>
      </trkpt>
      <trkpt lat="59.216081752979" lon="17.903475375978">
        <ele>12.4</ele>
        <time>2020-03-21T13:08:30Z</time>
      </trkpt>
      <trkpt lat="59.216069599224" lon="17.903503120067">
        <ele>12.8</ele>
        <time>2020-03-21T13:08:31Z</time>
      </trkpt>
      <trkpt lat="59.216031126303" lon="17.903557602417">
        <ele>13.6</ele>
        <time>2020-03-21T13:08:34Z</time>
      </trkpt>
      <trkpt lat="59.216009836277" lon="17.903589118361">
        <ele>13.8</ele>
        <time>2020-03-21T13:08:36Z</time>
      </trkpt>
      <trkpt lat="59.215964825474" lon="17.903633207155">
        <ele>14.6</ele>
        <time>2020-03-21T13:08:40Z</time>
      </trkpt>
      <trkpt lat="59.215919144119" lon="17.903674362284">
        <ele>15.2</ele>
        <time>2020-03-21T13:08:44Z</time>
      </trkpt>
      <trkpt lat="59.215897937912" lon="17.903694059749">
        <ele>15.6</ele>
        <time>2020-03-21T13:08:46Z</time>
      </trkpt>
      <trkpt lat="59.215818896595" lon="17.903729934281">
        <ele>16.6</ele>
        <time>2020-03-21T13:08:53Z</time>
      </trkpt>
      <trkpt lat="59.215794421447" lon="17.903733706136">
        <ele>16.6</ele>
        <time>2020-03-21T13:08:55Z</time>
      </trkpt>
      <trkpt lat="59.215703310194" lon="17.903749212651">
        <ele>16.8</ele>
        <time>2020-03-21T13:08:59Z</time>
      </trkpt>
      <trkpt lat="59.215564170654" lon="17.903764802985">
        <ele>16.4</ele>
        <time>2020-03-21T13:09:05Z</time>
      </trkpt>
      <trkpt lat="59.215422516544" lon="17.90379036778">
        <ele>15.6</ele>
        <time>2020-03-21T13:09:11Z</time>
      </trkpt>
      <trkpt lat="59.215300727537" lon="17.903803611182">
        <ele>14.8</ele>
        <time>2020-03-21T13:09:16Z</time>
      </trkpt>
      <trkpt lat="59.215253621259" lon="17.903814842928">
        <ele>14.4</ele>
        <time>2020-03-21T13:09:18Z</time>
      </trkpt>
      <trkpt lat="59.215214813062" lon="17.903828421606">
        <ele>14</ele>
        <time>2020-03-21T13:09:20Z</time>
      </trkpt>
      <trkpt lat="59.21513619084" lon="17.903806125752">
        <ele>13.4</ele>
        <time>2020-03-21T13:09:24Z</time>
      </trkpt>
      <trkpt lat="59.215091515313" lon="17.903780393319">
        <ele>13</ele>
        <time>2020-03-21T13:09:26Z</time>
      </trkpt>
      <trkpt lat="59.214981628604" lon="17.903732197394">
        <ele>12.4</ele>
        <time>2020-03-21T13:09:31Z</time>
      </trkpt>
      <trkpt lat="59.21487216099" lon="17.903655838285">
        <ele>11.8</ele>
        <time>2020-03-21T13:09:36Z</time>
      </trkpt>
      <trkpt lat="59.214773757484" lon="17.903584005402">
        <ele>11.4</ele>
        <time>2020-03-21T13:09:41Z</time>
      </trkpt>
      <trkpt lat="59.214682394774" lon="17.903524074817">
        <ele>11.4</ele>
        <time>2020-03-21T13:09:45Z</time>
      </trkpt>
      <trkpt lat="59.214653058124" lon="17.90350119223">
        <ele>11.4</ele>
        <time>2020-03-21T13:09:46Z</time>
      </trkpt>
      <trkpt lat="59.214565131993" lon="17.903456851979">
        <ele>11.6</ele>
        <time>2020-03-21T13:09:50Z</time>
      </trkpt>
      <trkpt lat="59.214467818134" lon="17.903430448994">
        <ele>12</ele>
        <time>2020-03-21T13:09:55Z</time>
      </trkpt>
      <trkpt lat="59.214412246137" lon="17.903427850605">
        <ele>12.4</ele>
        <time>2020-03-21T13:09:57Z</time>
      </trkpt>
      <trkpt lat="59.214373689397" lon="17.903426760958">
        <ele>12.8</ele>
        <time>2020-03-21T13:09:59Z</time>
      </trkpt>
      <trkpt lat="59.214317195391" lon="17.903454169771">
        <ele>13.2</ele>
        <time>2020-03-21T13:10:01Z</time>
      </trkpt>
      <trkpt lat="59.214296911193" lon="17.903467245535">
        <ele>13.4</ele>
        <time>2020-03-21T13:10:02Z</time>
      </trkpt>
      <trkpt lat="59.214278890108" lon="17.903463976594">
        <ele>13.8</ele>
        <time>2020-03-21T13:10:03Z</time>
      </trkpt>
      <trkpt lat="59.214242764119" lon="17.903487026819">
        <ele>14</ele>
        <time>2020-03-21T13:10:05Z</time>
      </trkpt>
      <trkpt lat="59.214194652013" lon="17.903496917461">
        <ele>14.8</ele>
        <time>2020-03-21T13:10:08Z</time>
      </trkpt>
      <trkpt lat="59.214116365067" lon="17.903553495286">
        <ele>15.8</ele>
        <time>2020-03-21T13:10:13Z</time>
      </trkpt>
      <trkpt lat="59.214100523276" lon="17.903569169439">
        <ele>16</ele>
        <time>2020-03-21T13:10:14Z</time>
      </trkpt>
      <trkpt lat="59.214084681485" lon="17.903574282398">
        <ele>16.2</ele>
        <time>2020-03-21T13:10:15Z</time>
      </trkpt>
      <trkpt lat="59.214016033724" lon="17.903609151102">
        <ele>16.8</ele>
        <time>2020-03-21T13:10:19Z</time>
      </trkpt>
      <trkpt lat="59.213961383736" lon="17.903644690358">
        <ele>17.6</ele>
        <time>2020-03-21T13:10:23Z</time>
      </trkpt>
      <trkpt lat="59.213945793402" lon="17.903658520493">
        <ele>17.8</ele>
        <time>2020-03-21T13:10:24Z</time>
      </trkpt>
      <trkpt lat="59.21393087362" lon="17.903664723099">
        <ele>18</ele>
        <time>2020-03-21T13:10:25Z</time>
      </trkpt>
      <trkpt lat="59.213894999088" lon="17.903665058375">
        <ele>18.6</ele>
        <time>2020-03-21T13:10:27Z</time>
      </trkpt>
      <trkpt lat="59.213879995487" lon="17.903658520493">
        <ele>18.8</ele>
        <time>2020-03-21T13:10:28Z</time>
      </trkpt>
      <trkpt lat="59.213863734601" lon="17.90366128652">
        <ele>19</ele>
        <time>2020-03-21T13:10:29Z</time>
      </trkpt>
      <trkpt lat="59.213779580325" lon="17.903650138593">
        <ele>19.8</ele>
        <time>2020-03-21T13:10:34Z</time>
      </trkpt>
      <trkpt lat="59.213771868977" lon="17.903650138593">
        <ele>20</ele>
        <time>2020-03-21T13:10:35Z</time>
      </trkpt>
      <trkpt lat="59.213746639458" lon="17.903634715897">
        <ele>20.6</ele>
        <time>2020-03-21T13:10:37Z</time>
      </trkpt>
      <trkpt lat="59.213692073289" lon="17.903609067283">
        <ele>21.2</ele>
        <time>2020-03-21T13:10:40Z</time>
      </trkpt>
      <trkpt lat="59.213620575682" lon="17.903589956551">
        <ele>22.4</ele>
        <time>2020-03-21T13:10:44Z</time>
      </trkpt>
      <trkpt lat="59.2136056559" lon="17.903583251031">
        <ele>22.6</ele>
        <time>2020-03-21T13:10:45Z</time>
      </trkpt>
      <trkpt lat="59.213592412498" lon="17.903569756172">
        <ele>22.8</ele>
        <time>2020-03-21T13:10:46Z</time>
      </trkpt>
      <trkpt lat="59.21355871726" lon="17.903554333476">
        <ele>23.4</ele>
        <time>2020-03-21T13:10:49Z</time>
      </trkpt>
      <trkpt lat="59.213548994256" lon="17.903545029567">
        <ele>23.6</ele>
        <time>2020-03-21T13:10:50Z</time>
      </trkpt>
      <trkpt lat="59.213526530764" lon="17.903538407866">
        <ele>23.8</ele>
        <time>2020-03-21T13:10:52Z</time>
      </trkpt>
      <trkpt lat="59.213510186059" lon="17.903520386781">
        <ele>24.2</ele>
        <time>2020-03-21T13:10:54Z</time>
      </trkpt>
      <trkpt lat="59.213492835526" lon="17.903514100356">
        <ele>24.4</ele>
        <time>2020-03-21T13:10:55Z</time>
      </trkpt>
      <trkpt lat="59.213477748106" lon="17.90350789775">
        <ele>24.6</ele>
        <time>2020-03-21T13:10:56Z</time>
      </trkpt>
      <trkpt lat="59.213422427566" lon="17.903511334329">
        <ele>25</ele>
        <time>2020-03-21T13:10:59Z</time>
      </trkpt>
      <trkpt lat="59.213375488926" lon="17.903541341531">
        <ele>25.6</ele>
        <time>2020-03-21T13:11:02Z</time>
      </trkpt>
      <trkpt lat="59.213353779805" lon="17.903572186923">
        <ele>26.2</ele>
        <time>2020-03-21T13:11:04Z</time>
      </trkpt>
      <trkpt lat="59.213333495607" lon="17.903628680929">
        <ele>26.8</ele>
        <time>2020-03-21T13:11:06Z</time>
      </trkpt>
      <trkpt lat="59.213320000748" lon="17.903674194646">
        <ele>27.6</ele>
        <time>2020-03-21T13:11:08Z</time>
      </trkpt>
      <trkpt lat="59.213314301056" lon="17.903702944563">
        <ele>28</ele>
        <time>2020-03-21T13:11:09Z</time>
      </trkpt>
      <trkpt lat="59.213287395157" lon="17.903822219">
        <ele>29</ele>
        <time>2020-03-21T13:11:12Z</time>
      </trkpt>
      <trkpt lat="59.213279264714" lon="17.903922466524">
        <ele>29.8</ele>
        <time>2020-03-21T13:11:14Z</time>
      </trkpt>
      <trkpt lat="59.213274487031" lon="17.903969153707">
        <ele>30.4</ele>
        <time>2020-03-21T13:11:15Z</time>
      </trkpt>
      <trkpt lat="59.213265183122" lon="17.904036125088">
        <ele>31.4</ele>
        <time>2020-03-21T13:11:17Z</time>
      </trkpt>
      <trkpt lat="59.213265266941" lon="17.904054313811">
        <ele>32.2</ele>
        <time>2020-03-21T13:11:19Z</time>
      </trkpt>
      <trkpt lat="59.213256717403" lon="17.904073927457">
        <ele>32.8</ele>
        <time>2020-03-21T13:11:20Z</time>
      </trkpt>
      <trkpt lat="59.213241210888" lon="17.904125392323">
        <ele>33.8</ele>
        <time>2020-03-21T13:11:24Z</time>
      </trkpt>
      <trkpt lat="59.213243725458" lon="17.904139809191">
        <ele>34</ele>
        <time>2020-03-21T13:11:25Z</time>
      </trkpt>
      <trkpt lat="59.213224866183" lon="17.904261933474">
        <ele>35</ele>
        <time>2020-03-21T13:11:30Z</time>
      </trkpt>
      <trkpt lat="59.213225201459" lon="17.904331670882">
        <ele>36.2</ele>
        <time>2020-03-21T13:11:34Z</time>
      </trkpt>
      <trkpt lat="59.213222770708" lon="17.904343992275">
        <ele>36.4</ele>
        <time>2020-03-21T13:11:35Z</time>
      </trkpt>
      <trkpt lat="59.213221178147" lon="17.90436788069">
        <ele>36.8</ele>
        <time>2020-03-21T13:11:37Z</time>
      </trkpt>
      <trkpt lat="59.2132200885" lon="17.904392439657">
        <ele>37</ele>
        <time>2020-03-21T13:11:39Z</time>
      </trkpt>
      <trkpt lat="59.213216903378" lon="17.904418423547">
        <ele>37.2</ele>
        <time>2020-03-21T13:11:41Z</time>
      </trkpt>
      <trkpt lat="59.213215981369" lon="17.904447424921">
        <ele>37.4</ele>
        <time>2020-03-21T13:11:43Z</time>
      </trkpt>
      <trkpt lat="59.213210616953" lon="17.904544654961">
        <ele>38.2</ele>
        <time>2020-03-21T13:11:49Z</time>
      </trkpt>
      <trkpt lat="59.213208521478" lon="17.904594694904">
        <ele>38.2</ele>
        <time>2020-03-21T13:11:51Z</time>
      </trkpt>
      <trkpt lat="59.21320667746" lon="17.904679435913">
        <ele>38.4</ele>
        <time>2020-03-21T13:11:53Z</time>
      </trkpt>
      <trkpt lat="59.2132200885" lon="17.904947321437">
        <ele>38.8</ele>
        <time>2020-03-21T13:11:59Z</time>
      </trkpt>
      <trkpt lat="59.213212460971" lon="17.905120910586">
        <ele>39.2</ele>
        <time>2020-03-21T13:12:03Z</time>
      </trkpt>
      <trkpt lat="59.213212377152" lon="17.905192743469">
        <ele>39.8</ele>
        <time>2020-03-21T13:12:05Z</time>
      </trkpt>
      <trkpt lat="59.213206845098" lon="17.905291482251">
        <ele>40.4</ele>
        <time>2020-03-21T13:12:10Z</time>
      </trkpt>
      <trkpt lat="59.21320416289" lon="17.90530749168">
        <ele>40.4</ele>
        <time>2020-03-21T13:12:11Z</time>
      </trkpt>
      <trkpt lat="59.213193350239" lon="17.905416959294">
        <ele>40.8</ele>
        <time>2020-03-21T13:12:17Z</time>
      </trkpt>
      <trkpt lat="59.213181783217" lon="17.905525672537">
        <ele>41.4</ele>
        <time>2020-03-21T13:12:21Z</time>
      </trkpt>
      <trkpt lat="59.213165857607" lon="17.905631116839">
        <ele>41.8</ele>
        <time>2020-03-21T13:12:23Z</time>
      </trkpt>
      <trkpt lat="59.213144483762" lon="17.90580621473">
        <ele>42.6</ele>
        <time>2020-03-21T13:12:26Z</time>
      </trkpt>
      <trkpt lat="59.213105759384" lon="17.905961866613">
        <ele>43.8</ele>
        <time>2020-03-21T13:12:29Z</time>
      </trkpt>
      <trkpt lat="59.213068459929" lon="17.906043673957">
        <ele>45</ele>
        <time>2020-03-21T13:12:32Z</time>
      </trkpt>
      <trkpt lat="59.213054043061" lon="17.906079967584">
        <ele>45.4</ele>
        <time>2020-03-21T13:12:34Z</time>
      </trkpt>
      <trkpt lat="59.213000734177" lon="17.906187088266">
        <ele>45.2</ele>
        <time>2020-03-21T13:12:41Z</time>
      </trkpt>
      <trkpt lat="59.212934600986" lon="17.906314660784">
        <ele>45</ele>
        <time>2020-03-21T13:12:48Z</time>
      </trkpt>
      <trkpt lat="59.212869892718" lon="17.906410130625">
        <ele>45.8</ele>
        <time>2020-03-21T13:12:54Z</time>
      </trkpt>
      <trkpt lat="59.212848015959" lon="17.906438293809">
        <ele>46.2</ele>
        <time>2020-03-21T13:12:55Z</time>
      </trkpt>
      <trkpt lat="59.212750450643" lon="17.906569889639">
        <ele>45.6</ele>
        <time>2020-03-21T13:12:59Z</time>
      </trkpt>
      <trkpt lat="59.21263000274" lon="17.906658486322">
        <ele>45</ele>
        <time>2020-03-21T13:13:05Z</time>
      </trkpt>
      <trkpt lat="59.212577951141" lon="17.906719674192">
        <ele>45</ele>
        <time>2020-03-21T13:13:10Z</time>
      </trkpt>
      <trkpt lat="59.212561857893" lon="17.906754878172">
        <ele>44.8</ele>
        <time>2020-03-21T13:13:12Z</time>
      </trkpt>
      <trkpt lat="59.212519194022" lon="17.906844145407">
        <ele>44.2</ele>
        <time>2020-03-21T13:13:17Z</time>
      </trkpt>
      <trkpt lat="59.212496059978" lon="17.906870548392">
        <ele>44</ele>
        <time>2020-03-21T13:13:19Z</time>
      </trkpt>
      <trkpt lat="59.212482984214" lon="17.906883456518">
        <ele>44</ele>
        <time>2020-03-21T13:13:20Z</time>
      </trkpt>
      <trkpt lat="59.212415342281" lon="17.906946069311">
        <ele>43.8</ele>
        <time>2020-03-21T13:13:26Z</time>
      </trkpt>
      <trkpt lat="59.212325404494" lon="17.907033827804">
        <ele>43.8</ele>
        <time>2020-03-21T13:13:30Z</time>
      </trkpt>
      <trkpt lat="59.212289278505" lon="17.907126866894">
        <ele>43.6</ele>
        <time>2020-03-21T13:13:35Z</time>
      </trkpt>
      <trkpt lat="59.212251643774" lon="17.90723616687">
        <ele>43.4</ele>
        <time>2020-03-21T13:13:39Z</time>
      </trkpt>
      <trkpt lat="59.212188360429" lon="17.907398021359">
        <ele>43.2</ele>
        <time>2020-03-21T13:13:45Z</time>
      </trkpt>
      <trkpt lat="59.212174446475" lon="17.907463567817">
        <ele>43</ele>
        <time>2020-03-21T13:13:47Z</time>
      </trkpt>
      <trkpt lat="59.212167657136" lon="17.907536574166">
        <ele>42.8</ele>
        <time>2020-03-21T13:13:49Z</time>
      </trkpt>
      <trkpt lat="59.212177715416" lon="17.907582087883">
        <ele>42.8</ele>
        <time>2020-03-21T13:13:51Z</time>
      </trkpt>
      <trkpt lat="59.212135973554" lon="17.907718209939">
        <ele>42.6</ele>
        <time>2020-03-21T13:13:55Z</time>
      </trkpt>
      <trkpt lat="59.212131866423" lon="17.907750899349">
        <ele>42.4</ele>
        <time>2020-03-21T13:13:56Z</time>
      </trkpt>
      <trkpt lat="59.212146031834" lon="17.907869754691">
        <ele>42.2</ele>
        <time>2020-03-21T13:13:59Z</time>
      </trkpt>
      <trkpt lat="59.212118958297" lon="17.908032698827">
        <ele>42.4</ele>
        <time>2020-03-21T13:14:03Z</time>
      </trkpt>
      <trkpt lat="59.212046371043" lon="17.908238725929">
        <ele>42.4</ele>
        <time>2020-03-21T13:14:10Z</time>
      </trkpt>
      <trkpt lat="59.212008149579" lon="17.908342661489">
        <ele>41.8</ele>
        <time>2020-03-21T13:14:15Z</time>
      </trkpt>
      <trkpt lat="59.211990379951" lon="17.908379038935">
        <ele>41.6</ele>
        <time>2020-03-21T13:14:17Z</time>
      </trkpt>
      <trkpt lat="59.211920810181" lon="17.908517507923">
        <ele>41.2</ele>
        <time>2020-03-21T13:14:24Z</time>
      </trkpt>
      <trkpt lat="59.211781503003" lon="17.908661592784">
        <ele>41</ele>
        <time>2020-03-21T13:14:31Z</time>
      </trkpt>
      <trkpt lat="59.211725931006" lon="17.908698976058">
        <ele>40.6</ele>
        <time>2020-03-21T13:14:33Z</time>
      </trkpt>
      <trkpt lat="59.211656361236" lon="17.90873904154">
        <ele>40</ele>
        <time>2020-03-21T13:14:36Z</time>
      </trkpt>
      <trkpt lat="59.211586204733" lon="17.908770138389">
        <ele>39.4</ele>
        <time>2020-03-21T13:14:39Z</time>
      </trkpt>
      <trkpt lat="59.211492746548" lon="17.908816825572">
        <ele>38.6</ele>
        <time>2020-03-21T13:14:43Z</time>
      </trkpt>
      <trkpt lat="59.211450585591" lon="17.908869547723">
        <ele>38.4</ele>
        <time>2020-03-21T13:14:45Z</time>
      </trkpt>
      <trkpt lat="59.211380596726" lon="17.908927215195">
        <ele>37.8</ele>
        <time>2020-03-21T13:14:48Z</time>
      </trkpt>
      <trkpt lat="59.211336005018" lon="17.908948672859">
        <ele>37.2</ele>
        <time>2020-03-21T13:14:50Z</time>
      </trkpt>
      <trkpt lat="59.21122268173" lon="17.908974824387">
        <ele>36.4</ele>
        <time>2020-03-21T13:14:55Z</time>
      </trkpt>
      <trkpt lat="59.211170546312" lon="17.908991755825">
        <ele>36</ele>
        <time>2020-03-21T13:14:57Z</time>
      </trkpt>
      <trkpt lat="59.211094354841" lon="17.909018326448">
        <ele>35.2</ele>
        <time>2020-03-21T13:15:00Z</time>
      </trkpt>
      <trkpt lat="59.211052780617" lon="17.909039197379">
        <ele>34.8</ele>
        <time>2020-03-21T13:15:02Z</time>
      </trkpt>
      <trkpt lat="59.211042889975" lon="17.909054284799">
        <ele>34.8</ele>
        <time>2020-03-21T13:15:03Z</time>
      </trkpt>
      <trkpt lat="59.211025623261" lon="17.90907180297">
        <ele>34.6</ele>
        <time>2020-03-21T13:15:04Z</time>
      </trkpt>
      <trkpt lat="59.210896122906" lon="17.909164087689">
        <ele>34</ele>
        <time>2020-03-21T13:15:10Z</time>
      </trkpt>
      <trkpt lat="59.210831498457" lon="17.90920758975">
        <ele>33.6</ele>
        <time>2020-03-21T13:15:13Z</time>
      </trkpt>
      <trkpt lat="59.210769388578" lon="17.9092620721">
        <ele>33</ele>
        <time>2020-03-21T13:15:16Z</time>
      </trkpt>
      <trkpt lat="59.210726221793" lon="17.909313956061">
        <ele>32.4</ele>
        <time>2020-03-21T13:15:18Z</time>
      </trkpt>
      <trkpt lat="59.21063594873" lon="17.909416047603">
        <ele>31.8</ele>
        <time>2020-03-21T13:15:22Z</time>
      </trkpt>
      <trkpt lat="59.2105965538" lon="17.909451167764">
        <ele>31.2</ele>
        <time>2020-03-21T13:15:24Z</time>
      </trkpt>
      <trkpt lat="59.210511645153" lon="17.909573459685">
        <ele>30.4</ele>
        <time>2020-03-21T13:15:29Z</time>
      </trkpt>
      <trkpt lat="59.210495887181" lon="17.909599778851">
        <ele>30.2</ele>
        <time>2020-03-21T13:15:30Z</time>
      </trkpt>
      <trkpt lat="59.210462946314" lon="17.909670354449">
        <ele>29.6</ele>
        <time>2020-03-21T13:15:34Z</time>
      </trkpt>
      <trkpt lat="59.210399327693" lon="17.909858695742">
        <ele>29.8</ele>
        <time>2020-03-21T13:15:42Z</time>
      </trkpt>
      <trkpt lat="59.210362279695" lon="17.909960535827">
        <ele>29.2</ele>
        <time>2020-03-21T13:15:45Z</time>
      </trkpt>
      <trkpt lat="59.210328668276" lon="17.910017113652">
        <ele>28.4</ele>
        <time>2020-03-21T13:15:48Z</time>
      </trkpt>
      <trkpt lat="59.210288183699" lon="17.910099591548">
        <ele>28.2</ele>
        <time>2020-03-21T13:15:51Z</time>
      </trkpt>
      <trkpt lat="59.210269408243" lon="17.910163713083">
        <ele>28</ele>
        <time>2020-03-21T13:15:53Z</time>
      </trkpt>
      <trkpt lat="59.210248369674" lon="17.910327579228">
        <ele>27.8</ele>
        <time>2020-03-21T13:15:58Z</time>
      </trkpt>
      <trkpt lat="59.21023026477" lon="17.910542072049">
        <ele>28</ele>
        <time>2020-03-21T13:16:05Z</time>
      </trkpt>
      <trkpt lat="59.210222469603" lon="17.910684731987">
        <ele>27.8</ele>
        <time>2020-03-21T13:16:12Z</time>
      </trkpt>
      <trkpt lat="59.210220290309" lon="17.910832421065">
        <ele>27.2</ele>
        <time>2020-03-21T13:16:19Z</time>
      </trkpt>
      <trkpt lat="59.2102193683" lon="17.910854465462">
        <ele>27.2</ele>
        <time>2020-03-21T13:16:20Z</time>
      </trkpt>
      <trkpt lat="59.210218278653" lon="17.910871229262">
        <ele>27</ele>
        <time>2020-03-21T13:16:21Z</time>
      </trkpt>
      <trkpt lat="59.210209058563" lon="17.910991341889">
        <ele>26.4</ele>
        <time>2020-03-21T13:16:27Z</time>
      </trkpt>
      <trkpt lat="59.210208388011" lon="17.911138360415">
        <ele>26.4</ele>
        <time>2020-03-21T13:16:35Z</time>
      </trkpt>
      <trkpt lat="59.210218697748" lon="17.911214468067">
        <ele>26</ele>
        <time>2020-03-21T13:16:39Z</time>
      </trkpt>
      <trkpt lat="59.210220457947" lon="17.911236093369">
        <ele>25.8</ele>
        <time>2020-03-21T13:16:40Z</time>
      </trkpt>
      <trkpt lat="59.210224229802" lon="17.911265765295">
        <ele>25.8</ele>
        <time>2020-03-21T13:16:41Z</time>
      </trkpt>
      <trkpt lat="59.210212746599" lon="17.911477324451">
        <ele>25</ele>
        <time>2020-03-21T13:16:46Z</time>
      </trkpt>
      <trkpt lat="59.210208304192" lon="17.911534489009">
        <ele>24.6</ele>
        <time>2020-03-21T13:16:47Z</time>
      </trkpt>
      <trkpt lat="59.21023026477" lon="17.911704306303">
        <ele>23.6</ele>
        <time>2020-03-21T13:16:51Z</time>
      </trkpt>
      <trkpt lat="59.210285669129" lon="17.911852498295">
        <ele>23.4</ele>
        <time>2020-03-21T13:16:56Z</time>
      </trkpt>
      <trkpt lat="59.21033503852" lon="17.911927683938">
        <ele>24</ele>
        <time>2020-03-21T13:17:00Z</time>
      </trkpt>
      <trkpt lat="59.210349203931" lon="17.911950063611">
        <ele>24.2</ele>
        <time>2020-03-21T13:17:01Z</time>
      </trkpt>
      <trkpt lat="59.210425730678" lon="17.912056429922">
        <ele>24.8</ele>
        <time>2020-03-21T13:17:05Z</time>
      </trkpt>
      <trkpt lat="59.210459425916" lon="17.912115522317">
        <ele>25</ele>
        <time>2020-03-21T13:17:07Z</time>
      </trkpt>
      <trkpt lat="59.210538886328" lon="17.912241166998">
        <ele>25.4</ele>
        <time>2020-03-21T13:17:12Z</time>
      </trkpt>
      <trkpt lat="59.210569815539" lon="17.912294727339">
        <ele>26</ele>
        <time>2020-03-21T13:17:14Z</time>
      </trkpt>
      <trkpt lat="59.210620274577" lon="17.912372930466">
        <ele>26.2</ele>
        <time>2020-03-21T13:17:17Z</time>
      </trkpt>
      <trkpt lat="59.210701914283" lon="17.912504777753">
        <ele>26</ele>
        <time>2020-03-21T13:17:22Z</time>
      </trkpt>
      <trkpt lat="59.210773244252" lon="17.912672583391">
        <ele>26</ele>
        <time>2020-03-21T13:17:28Z</time>
      </trkpt>
      <trkpt lat="59.210874916699" lon="17.91288640566">
        <ele>25.8</ele>
        <time>2020-03-21T13:17:34Z</time>
      </trkpt>
      <trkpt lat="59.210937194216" lon="17.913047841054">
        <ele>25.6</ele>
        <time>2020-03-21T13:17:40Z</time>
      </trkpt>
      <trkpt lat="59.210962256097" lon="17.913183208739">
        <ele>25</ele>
        <time>2020-03-21T13:17:44Z</time>
      </trkpt>
      <trkpt lat="59.2109737393" lon="17.913228890094">
        <ele>24.8</ele>
        <time>2020-03-21T13:17:45Z</time>
      </trkpt>
      <trkpt lat="59.211006009615" lon="17.913317151501">
        <ele>24.8</ele>
        <time>2020-03-21T13:17:48Z</time>
      </trkpt>
      <trkpt lat="59.211018582465" lon="17.913348499807">
        <ele>24.8</ele>
        <time>2020-03-21T13:17:49Z</time>
      </trkpt>
      <trkpt lat="59.211080943801" lon="17.913524938802">
        <ele>23.8</ele>
        <time>2020-03-21T13:17:55Z</time>
      </trkpt>
      <trkpt lat="59.211158476376" lon="17.913665838541">
        <ele>23.4</ele>
        <time>2020-03-21T13:18:00Z</time>
      </trkpt>
      <trkpt lat="59.211230979811" lon="17.913817970026">
        <ele>23</ele>
        <time>2020-03-21T13:18:05Z</time>
      </trkpt>
      <trkpt lat="59.211239613168" lon="17.913855856214">
        <ele>22.8</ele>
        <time>2020-03-21T13:18:06Z</time>
      </trkpt>
      <trkpt lat="59.211249922905" lon="17.913889132357">
        <ele>22.6</ele>
        <time>2020-03-21T13:18:07Z</time>
      </trkpt>
      <trkpt lat="59.211308680024" lon="17.913980411248">
        <ele>23</ele>
        <time>2020-03-21T13:18:11Z</time>
      </trkpt>
      <trkpt lat="59.211401383838" lon="17.914150228542">
        <ele>22.6</ele>
        <time>2020-03-21T13:18:16Z</time>
      </trkpt>
      <trkpt lat="59.211483107363" lon="17.914320045836">
        <ele>21.8</ele>
        <time>2020-03-21T13:18:21Z</time>
      </trkpt>
      <trkpt lat="59.211515126221" lon="17.914379138231">
        <ele>22</ele>
        <time>2020-03-21T13:18:23Z</time>
      </trkpt>
      <trkpt lat="59.211582349059" lon="17.914521798169">
        <ele>21.4</ele>
        <time>2020-03-21T13:18:28Z</time>
      </trkpt>
      <trkpt lat="59.211648146974" lon="17.914627661566">
        <ele>21</ele>
        <time>2020-03-21T13:18:33Z</time>
      </trkpt>
      <trkpt lat="59.211684105325" lon="17.914664961021">
        <ele>20.6</ele>
        <time>2020-03-21T13:18:36Z</time>
      </trkpt>
      <trkpt lat="59.21171553745" lon="17.914710474738">
        <ele>20.8</ele>
        <time>2020-03-21T13:18:38Z</time>
      </trkpt>
      <trkpt lat="59.211820478838" lon="17.914859588739">
        <ele>20.8</ele>
        <time>2020-03-21T13:18:44Z</time>
      </trkpt>
      <trkpt lat="59.21188569002" lon="17.914971570923">
        <ele>20.6</ele>
        <time>2020-03-21T13:18:49Z</time>
      </trkpt>
      <trkpt lat="59.211967245907" lon="17.915100568364">
        <ele>20</ele>
        <time>2020-03-21T13:18:53Z</time>
      </trkpt>
      <trkpt lat="59.211989122666" lon="17.915140214751">
        <ele>19.6</ele>
        <time>2020-03-21T13:18:54Z</time>
      </trkpt>
      <trkpt lat="59.21202566775" lon="17.915212131453">
        <ele>19.4</ele>
        <time>2020-03-21T13:18:57Z</time>
      </trkpt>
      <trkpt lat="59.212033379098" lon="17.915223949932">
        <ele>19.2</ele>
        <time>2020-03-21T13:18:58Z</time>
      </trkpt>
      <trkpt lat="59.212044191749" lon="17.915241384284">
        <ele>19.2</ele>
        <time>2020-03-21T13:19:00Z</time>
      </trkpt>
      <trkpt lat="59.212048215061" lon="17.91524591051">
        <ele>18.6</ele>
        <time>2020-03-21T13:19:03Z</time>
      </trkpt>
      <trkpt lat="59.212056094047" lon="17.915247503071">
        <ele>18.6</ele>
        <time>2020-03-21T13:19:05Z</time>
      </trkpt>
      <trkpt lat="59.212062212834" lon="17.915258315722">
        <ele>18</ele>
        <time>2020-03-21T13:19:11Z</time>
      </trkpt>
      <trkpt lat="59.212065817051" lon="17.91526854164">
        <ele>18</ele>
        <time>2020-03-21T13:19:22Z</time>
      </trkpt>
      <trkpt lat="59.212111414587" lon="17.915334591012">
        <ele>18.4</ele>
        <time>2020-03-21T13:19:28Z</time>
      </trkpt>
      <trkpt lat="59.212180816719" lon="17.915481022805">
        <ele>18.4</ele>
        <time>2020-03-21T13:19:33Z</time>
      </trkpt>
      <trkpt lat="59.212257511104" lon="17.91564656533">
        <ele>17.6</ele>
        <time>2020-03-21T13:19:38Z</time>
      </trkpt>
      <trkpt lat="59.212271508877" lon="17.915681266396">
        <ele>17.4</ele>
        <time>2020-03-21T13:19:39Z</time>
      </trkpt>
      <trkpt lat="59.2123232252" lon="17.915831302406">
        <ele>16.4</ele>
        <time>2020-03-21T13:19:44Z</time>
      </trkpt>
      <trkpt lat="59.212353567678" lon="17.915858375943">
        <ele>16</ele>
        <time>2020-03-21T13:19:46Z</time>
      </trkpt>
      <trkpt lat="59.212397237377" lon="17.915846138369">
        <ele>16</ele>
        <time>2020-03-21T13:19:48Z</time>
      </trkpt>
      <trkpt lat="59.212443840741" lon="17.915839432849">
        <ele>15.6</ele>
        <time>2020-03-21T13:19:52Z</time>
      </trkpt>
      <trkpt lat="59.212482062205" lon="17.915846473645">
        <ele>15.6</ele>
        <time>2020-03-21T13:19:54Z</time>
      </trkpt>
      <trkpt lat="59.212530677225" lon="17.915867512214">
        <ele>15</ele>
        <time>2020-03-21T13:19:57Z</time>
      </trkpt>
      <trkpt lat="59.212544423541" lon="17.915885868575">
        <ele>14.8</ele>
        <time>2020-03-21T13:19:58Z</time>
      </trkpt>
      <trkpt lat="59.212598905891" lon="17.916040095535">
        <ele>14</ele>
        <time>2020-03-21T13:20:03Z</time>
      </trkpt>
      <trkpt lat="59.212603851212" lon="17.916076053886">
        <ele>14.2</ele>
        <time>2020-03-21T13:20:04Z</time>
      </trkpt>
      <trkpt lat="59.21263838464" lon="17.916235477624">
        <ele>14.6</ele>
        <time>2020-03-21T13:20:09Z</time>
      </trkpt>
      <trkpt lat="59.21274483477" lon="17.916233549787">
        <ele>14</ele>
        <time>2020-03-21T13:20:14Z</time>
      </trkpt>
      <trkpt lat="59.212831671254" lon="17.916221982765">
        <ele>13.4</ele>
        <time>2020-03-21T13:20:18Z</time>
      </trkpt>
      <trkpt lat="59.21287559241" lon="17.916206811526">
        <ele>13.2</ele>
        <time>2020-03-21T13:20:20Z</time>
      </trkpt>
      <trkpt lat="59.212953627899" lon="17.916169344433">
        <ele>13.2</ele>
        <time>2020-03-21T13:20:26Z</time>
      </trkpt>
      <trkpt lat="59.212966536025" lon="17.916166075492">
        <ele>13.2</ele>
        <time>2020-03-21T13:20:27Z</time>
      </trkpt>
      <trkpt lat="59.212984808567" lon="17.916155681936">
        <ele>12.8</ele>
        <time>2020-03-21T13:20:29Z</time>
      </trkpt>
      <trkpt lat="59.21300886462" lon="17.91614445019">
        <ele>12.8</ele>
        <time>2020-03-21T13:20:31Z</time>
      </trkpt>
      <trkpt lat="59.213028645904" lon="17.91613355372">
        <ele>12.6</ele>
        <time>2020-03-21T13:20:33Z</time>
      </trkpt>
      <trkpt lat="59.213079524037" lon="17.916095416075">
        <ele>12.4</ele>
        <time>2020-03-21T13:20:37Z</time>
      </trkpt>
      <trkpt lat="59.213139538441" lon="17.916059038629">
        <ele>12</ele>
        <time>2020-03-21T13:20:42Z</time>
      </trkpt>
      <trkpt lat="59.213224782364" lon="17.916001287338">
        <ele>11.8</ele>
        <time>2020-03-21T13:20:50Z</time>
      </trkpt>
      <trkpt lat="59.213266105131" lon="17.915954013422">
        <ele>10.8</ele>
        <time>2020-03-21T13:20:54Z</time>
      </trkpt>
      <trkpt lat="59.213277839791" lon="17.915946134436">
        <ele>10.6</ele>
        <time>2020-03-21T13:20:55Z</time>
      </trkpt>
      <trkpt lat="59.213305751518" lon="17.915915875777">
        <ele>10.6</ele>
        <time>2020-03-21T13:20:57Z</time>
      </trkpt>
      <trkpt lat="59.213322599137" lon="17.915906320411">
        <ele>10.6</ele>
        <time>2020-03-21T13:20:58Z</time>
      </trkpt>
      <trkpt lat="59.213401388997" lon="17.915861225789">
        <ele>9.6</ele>
        <time>2020-03-21T13:21:04Z</time>
      </trkpt>
      <trkpt lat="59.213455955166" lon="17.915824177791">
        <ele>9.2</ele>
        <time>2020-03-21T13:21:09Z</time>
      </trkpt>
      <trkpt lat="59.213496775019" lon="17.915787967983">
        <ele>8.8</ele>
        <time>2020-03-21T13:21:13Z</time>
      </trkpt>
      <trkpt lat="59.213529212972" lon="17.915758631333">
        <ele>8.6</ele>
        <time>2020-03-21T13:21:15Z</time>
      </trkpt>
      <trkpt lat="59.21354362984" lon="17.915749578881">
        <ele>8.6</ele>
        <time>2020-03-21T13:21:16Z</time>
      </trkpt>
      <trkpt lat="59.213595178525" lon="17.91571362053">
        <ele>8.4</ele>
        <time>2020-03-21T13:21:19Z</time>
      </trkpt>
      <trkpt lat="59.213628706125" lon="17.915686882269">
        <ele>8.2</ele>
        <time>2020-03-21T13:21:21Z</time>
      </trkpt>
      <trkpt lat="59.21375485372" lon="17.91560130307">
        <ele>8.2</ele>
        <time>2020-03-21T13:21:27Z</time>
      </trkpt>
      <trkpt lat="59.213868260827" lon="17.915527374712">
        <ele>8</ele>
        <time>2020-03-21T13:21:33Z</time>
      </trkpt>
      <trkpt lat="59.21395601932" lon="17.915465851566">
        <ele>7.4</ele>
        <time>2020-03-21T13:21:38Z</time>
      </trkpt>
      <trkpt lat="59.213991390938" lon="17.915440873504">
        <ele>7.6</ele>
        <time>2020-03-21T13:21:40Z</time>
      </trkpt>
      <trkpt lat="59.214050650971" lon="17.915418996745">
        <ele>7.2</ele>
        <time>2020-03-21T13:21:46Z</time>
      </trkpt>
      <trkpt lat="59.214059368147" lon="17.915409944293">
        <ele>7.2</ele>
        <time>2020-03-21T13:21:47Z</time>
      </trkpt>
      <trkpt lat="59.214103037846" lon="17.915388989543">
        <ele>6.8</ele>
        <time>2020-03-21T13:21:52Z</time>
      </trkpt>
      <trkpt lat="59.214162800793" lon="17.91533811141">
        <ele>6.6</ele>
        <time>2020-03-21T13:21:59Z</time>
      </trkpt>
      <trkpt lat="59.214257851539" lon="17.915290753675">
        <ele>6.8</ele>
        <time>2020-03-21T13:22:05Z</time>
      </trkpt>
      <trkpt lat="59.21435583595" lon="17.915205593571">
        <ele>6.4</ele>
        <time>2020-03-21T13:22:10Z</time>
      </trkpt>
      <trkpt lat="59.214393889776" lon="17.915157481465">
        <ele>6.6</ele>
        <time>2020-03-21T13:22:12Z</time>
      </trkpt>
      <trkpt lat="59.214402439314" lon="17.91513610762">
        <ele>6.6</ele>
        <time>2020-03-21T13:22:13Z</time>
      </trkpt>
      <trkpt lat="59.214440241683" lon="17.915108028255">
        <ele>7</ele>
        <time>2020-03-21T13:22:15Z</time>
      </trkpt>
      <trkpt lat="59.214524731235" lon="17.91504893586">
        <ele>6.8</ele>
        <time>2020-03-21T13:22:19Z</time>
      </trkpt>
      <trkpt lat="59.214568065658" lon="17.915012726052">
        <ele>6.4</ele>
        <time>2020-03-21T13:22:21Z</time>
      </trkpt>
      <trkpt lat="59.214672252675" lon="17.914942150454">
        <ele>6.6</ele>
        <time>2020-03-21T13:22:27Z</time>
      </trkpt>
      <trkpt lat="59.214770153267" lon="17.914879370023">
        <ele>6.4</ele>
        <time>2020-03-21T13:22:33Z</time>
      </trkpt>
      <trkpt lat="59.21485372081" lon="17.914805693122">
        <ele>6</ele>
        <time>2020-03-21T13:22:37Z</time>
      </trkpt>
      <trkpt lat="59.214916501241" lon="17.914757078102">
        <ele>5.4</ele>
        <time>2020-03-21T13:22:40Z</time>
      </trkpt>
      <trkpt lat="59.215005852295" lon="17.914668649057">
        <ele>4.8</ele>
        <time>2020-03-21T13:22:45Z</time>
      </trkpt>
      <trkpt lat="59.215054802591" lon="17.91461475344">
        <ele>4.8</ele>
        <time>2020-03-21T13:22:49Z</time>
      </trkpt>
      <trkpt lat="59.215078774825" lon="17.914579633279">
        <ele>4.6</ele>
        <time>2020-03-21T13:22:51Z</time>
      </trkpt>
      <trkpt lat="59.215128395673" lon="17.914529341879">
        <ele>4.4</ele>
        <time>2020-03-21T13:22:55Z</time>
      </trkpt>
      <trkpt lat="59.21514624912" lon="17.914512578079">
        <ele>4.4</ele>
        <time>2020-03-21T13:22:56Z</time>
      </trkpt>
      <trkpt lat="59.215157397047" lon="17.914496149555">
        <ele>4.4</ele>
        <time>2020-03-21T13:22:57Z</time>
      </trkpt>
      <trkpt lat="59.215213136682" lon="17.91443286621">
        <ele>4.4</ele>
        <time>2020-03-21T13:23:02Z</time>
      </trkpt>
      <trkpt lat="59.21522252441" lon="17.914417443514">
        <ele>4.2</ele>
        <time>2020-03-21T13:23:03Z</time>
      </trkpt>
      <trkpt lat="59.215288489963" lon="17.914308311176">
        <ele>3.6</ele>
        <time>2020-03-21T13:23:10Z</time>
      </trkpt>
      <trkpt lat="59.215312629835" lon="17.914226755289">
        <ele>3.6</ele>
        <time>2020-03-21T13:23:14Z</time>
      </trkpt>
      <trkpt lat="59.215321347011" lon="17.914207141643">
        <ele>3.6</ele>
        <time>2020-03-21T13:23:15Z</time>
      </trkpt>
      <trkpt lat="59.215343391408" lon="17.914148887438">
        <ele>3.6</ele>
        <time>2020-03-21T13:23:18Z</time>
      </trkpt>
      <trkpt lat="59.21534490015" lon="17.91412860324">
        <ele>3.6</ele>
        <time>2020-03-21T13:23:19Z</time>
      </trkpt>
      <trkpt lat="59.215345235426" lon="17.914107816128">
        <ele>3.6</ele>
        <time>2020-03-21T13:23:20Z</time>
      </trkpt>
      <trkpt lat="59.215356550991" lon="17.913957780118">
        <ele>3.6</ele>
        <time>2020-03-21T13:23:27Z</time>
      </trkpt>
      <trkpt lat="59.215365100529" lon="17.913812689429">
        <ele>4</ele>
        <time>2020-03-21T13:23:34Z</time>
      </trkpt>
      <trkpt lat="59.215367782737" lon="17.913789890661">
        <ele>4</ele>
        <time>2020-03-21T13:23:35Z</time>
      </trkpt>
      <trkpt lat="59.215393431351" lon="17.913676232097">
        <ele>3.8</ele>
        <time>2020-03-21T13:23:40Z</time>
      </trkpt>
      <trkpt lat="59.215423354734" lon="17.913538098385">
        <ele>3.8</ele>
        <time>2020-03-21T13:23:47Z</time>
      </trkpt>
      <trkpt lat="59.215452691384" lon="17.913417482844">
        <ele>3.8</ele>
        <time>2020-03-21T13:23:53Z</time>
      </trkpt>
      <trkpt lat="59.215457804343" lon="17.913399797035">
        <ele>3.8</ele>
        <time>2020-03-21T13:23:54Z</time>
      </trkpt>
      <trkpt lat="59.215489236468" lon="17.913273481802">
        <ele>3.6</ele>
        <time>2020-03-21T13:23:59Z</time>
      </trkpt>
      <trkpt lat="59.215528715217" lon="17.91301883968">
        <ele>3.8</ele>
        <time>2020-03-21T13:24:06Z</time>
      </trkpt>
      <trkpt lat="59.215535672194" lon="17.912756905305">
        <ele>4.4</ele>
        <time>2020-03-21T13:24:12Z</time>
      </trkpt>
      <trkpt lat="59.215547490673" lon="17.912453480525">
        <ele>4</ele>
        <time>2020-03-21T13:24:19Z</time>
      </trkpt>
      <trkpt lat="59.21556869688" lon="17.912204705733">
        <ele>4.2</ele>
        <time>2020-03-21T13:24:25Z</time>
      </trkpt>
      <trkpt lat="59.215591747105" lon="17.911952410543">
        <ele>4</ele>
        <time>2020-03-21T13:24:31Z</time>
      </trkpt>
      <trkpt lat="59.21559551896" lon="17.911890887397">
        <ele>3.8</ele>
        <time>2020-03-21T13:24:33Z</time>
      </trkpt>
      <trkpt lat="59.215602308299" lon="17.91183950635">
        <ele>3.8</ele>
        <time>2020-03-21T13:24:35Z</time>
      </trkpt>
      <trkpt lat="59.215610019647" lon="17.911775552453">
        <ele>3.8</ele>
        <time>2020-03-21T13:24:38Z</time>
      </trkpt>
      <trkpt lat="59.215612953312" lon="17.911701372638">
        <ele>3.6</ele>
        <time>2020-03-21T13:24:41Z</time>
      </trkpt>
      <trkpt lat="59.215629549474" lon="17.911494842622">
        <ele>3.4</ele>
        <time>2020-03-21T13:24:46Z</time>
      </trkpt>
      <trkpt lat="59.215642960514" lon="17.911256796662">
        <ele>3.6</ele>
        <time>2020-03-21T13:24:51Z</time>
      </trkpt>
      <trkpt lat="59.215658215572" lon="17.911038280529">
        <ele>3.4</ele>
        <time>2020-03-21T13:24:56Z</time>
      </trkpt>
      <trkpt lat="59.215674225001" lon="17.910862428267">
        <ele>3.2</ele>
        <time>2020-03-21T13:25:01Z</time>
      </trkpt>
      <trkpt lat="59.21568101434" lon="17.910826218459">
        <ele>3.2</ele>
        <time>2020-03-21T13:25:03Z</time>
      </trkpt>
      <trkpt lat="59.215683193634" lon="17.910780453285">
        <ele>2.8</ele>
        <time>2020-03-21T13:25:06Z</time>
      </trkpt>
      <trkpt lat="59.21568604348" lon="17.910733766102">
        <ele>2.8</ele>
        <time>2020-03-21T13:25:08Z</time>
      </trkpt>
      <trkpt lat="59.21569442538" lon="17.910611222724">
        <ele>2.8</ele>
        <time>2020-03-21T13:25:14Z</time>
      </trkpt>
      <trkpt lat="59.215706243859" lon="17.910451044615">
        <ele>2.8</ele>
        <time>2020-03-21T13:25:22Z</time>
      </trkpt>
      <trkpt lat="59.215715463949" lon="17.910284328624">
        <ele>3</ele>
        <time>2020-03-21T13:25:30Z</time>
      </trkpt>
      <trkpt lat="59.215722588564" lon="17.910222386383">
        <ele>3.2</ele>
        <time>2020-03-21T13:25:33Z</time>
      </trkpt>
      <trkpt lat="59.215729545541" lon="17.910136639546">
        <ele>3.4</ele>
        <time>2020-03-21T13:25:37Z</time>
      </trkpt>
      <trkpt lat="59.215751925214" lon="17.909942514742">
        <ele>3</ele>
        <time>2020-03-21T13:25:45Z</time>
      </trkpt>
      <trkpt lat="59.215753266318" lon="17.909745288635">
        <ele>3.4</ele>
        <time>2020-03-21T13:25:51Z</time>
      </trkpt>
      <trkpt lat="59.215762989322" lon="17.909699439642">
        <ele>3.2</ele>
        <time>2020-03-21T13:25:52Z</time>
      </trkpt>
      <trkpt lat="59.215769611023" lon="17.909610591502">
        <ele>3.2</ele>
        <time>2020-03-21T13:25:54Z</time>
      </trkpt>
      <trkpt lat="59.215793667076" lon="17.909348740946">
        <ele>3.2</ele>
        <time>2020-03-21T13:26:00Z</time>
      </trkpt>
      <trkpt lat="59.215807497211" lon="17.909118657791">
        <ele>3.6</ele>
        <time>2020-03-21T13:26:05Z</time>
      </trkpt>
      <trkpt lat="59.215823171364" lon="17.908960994252">
        <ele>3.2</ele>
        <time>2020-03-21T13:26:09Z</time>
      </trkpt>
      <trkpt lat="59.215807664849" lon="17.908757649358">
        <ele>3.2</ele>
        <time>2020-03-21T13:26:14Z</time>
      </trkpt>
      <trkpt lat="59.215792074515" lon="17.908506779091">
        <ele>3.6</ele>
        <time>2020-03-21T13:26:20Z</time>
      </trkpt>
      <trkpt lat="59.215787380651" lon="17.90828725713">
        <ele>4</ele>
        <time>2020-03-21T13:26:25Z</time>
      </trkpt>
      <trkpt lat="59.215777825285" lon="17.9081053699">
        <ele>4.4</ele>
        <time>2020-03-21T13:26:29Z</time>
      </trkpt>
      <trkpt lat="59.215777154733" lon="17.908068238083">
        <ele>4.2</ele>
        <time>2020-03-21T13:26:30Z</time>
      </trkpt>
      <trkpt lat="59.215787213013" lon="17.907908479069">
        <ele>4.6</ele>
        <time>2020-03-21T13:26:36Z</time>
      </trkpt>
      <trkpt lat="59.215794086171" lon="17.907866318112">
        <ele>4.6</ele>
        <time>2020-03-21T13:26:38Z</time>
      </trkpt>
      <trkpt lat="59.215800624053" lon="17.907786438605">
        <ele>5</ele>
        <time>2020-03-21T13:26:42Z</time>
      </trkpt>
      <trkpt lat="59.215803641537" lon="17.90776422657">
        <ele>5.2</ele>
        <time>2020-03-21T13:26:43Z</time>
      </trkpt>
      <trkpt lat="59.215814370369" lon="17.907705385632">
        <ele>5.4</ele>
        <time>2020-03-21T13:26:46Z</time>
      </trkpt>
      <trkpt lat="59.215817304034" lon="17.907682419226">
        <ele>5.4</ele>
        <time>2020-03-21T13:26:47Z</time>
      </trkpt>
      <trkpt lat="59.215830715074" lon="17.907573203069">
        <ele>5.2</ele>
        <time>2020-03-21T13:26:52Z</time>
      </trkpt>
      <trkpt lat="59.215837420594" lon="17.907526432067">
        <ele>5</ele>
        <time>2020-03-21T13:26:54Z</time>
      </trkpt>
      <trkpt lat="59.215865667597" lon="17.90735854261">
        <ele>4.6</ele>
        <time>2020-03-21T13:27:01Z</time>
      </trkpt>
      <trkpt lat="59.215958874325" lon="17.907146312902">
        <ele>4.4</ele>
        <time>2020-03-21T13:27:07Z</time>
      </trkpt>
      <trkpt lat="59.215974716116" lon="17.907110103094">
        <ele>4.4</ele>
        <time>2020-03-21T13:27:08Z</time>
      </trkpt>
      <trkpt lat="59.216056942555" lon="17.906982027662">
        <ele>3.8</ele>
        <time>2020-03-21T13:27:12Z</time>
      </trkpt>
      <trkpt lat="59.216073371079" lon="17.906953445383">
        <ele>3.6</ele>
        <time>2020-03-21T13:27:13Z</time>
      </trkpt>
      <trkpt lat="59.21613531332" lon="17.906865603071">
        <ele>3.6</ele>
        <time>2020-03-21T13:27:16Z</time>
      </trkpt>
      <trkpt lat="59.216194740991" lon="17.906778598949">
        <ele>3.2</ele>
        <time>2020-03-21T13:27:19Z</time>
      </trkpt>
      <trkpt lat="59.216232627179" lon="17.90670307803">
        <ele>2.8</ele>
        <time>2020-03-21T13:27:22Z</time>
      </trkpt>
      <trkpt lat="59.216259868354" lon="17.906655636476">
        <ele>2.2</ele>
        <time>2020-03-21T13:27:25Z</time>
      </trkpt>
      <trkpt lat="59.216297000171" lon="17.906588581276">
        <ele>1.8</ele>
        <time>2020-03-21T13:27:29Z</time>
      </trkpt>
      <trkpt lat="59.216344525544" lon="17.90653292546">
        <ele>1.4</ele>
        <time>2020-03-21T13:27:34Z</time>
      </trkpt>
      <trkpt lat="59.21635408091" lon="17.906519765877">
        <ele>1.2</ele>
        <time>2020-03-21T13:27:35Z</time>
      </trkpt>
      <trkpt lat="59.21636162462" lon="17.906502666801">
        <ele>1.2</ele>
        <time>2020-03-21T13:27:36Z</time>
      </trkpt>
      <trkpt lat="59.216411329287" lon="17.906421530009">
        <ele>0.6</ele>
        <time>2020-03-21T13:27:42Z</time>
      </trkpt>
      <trkpt lat="59.216446365629" lon="17.906454889971">
        <ele>0.4</ele>
        <time>2020-03-21T13:27:46Z</time>
      </trkpt>
      <trkpt lat="59.21647058932" lon="17.906486322096">
        <ele>0.4</ele>
        <time>2020-03-21T13:27:48Z</time>
      </trkpt>
      <trkpt lat="59.216565640066" lon="17.90660249523">
        <ele>1</ele>
        <time>2020-03-21T13:27:56Z</time>
      </trkpt>
      <trkpt lat="59.216643340279" lon="17.906730403024">
        <ele>0.4</ele>
        <time>2020-03-21T13:28:02Z</time>
      </trkpt>
      <trkpt lat="59.216705114882" lon="17.906895945549">
        <ele>0.4</ele>
        <time>2020-03-21T13:28:08Z</time>
      </trkpt>
      <trkpt lat="59.216768230589" lon="17.90711798208">
        <ele>1.4</ele>
        <time>2020-03-21T13:28:14Z</time>
      </trkpt>
      <trkpt lat="59.216816342695" lon="17.907307329201">
        <ele>1.2</ele>
        <time>2020-03-21T13:28:20Z</time>
      </trkpt>
      <trkpt lat="59.216885996284" lon="17.907593822543">
        <ele>2.4</ele>
        <time>2020-03-21T13:28:27Z</time>
      </trkpt>
      <trkpt lat="59.216934611304" lon="17.907806052251">
        <ele>3</ele>
        <time>2020-03-21T13:28:33Z</time>
      </trkpt>
      <trkpt lat="59.216978113365" lon="17.90795617208">
        <ele>3.4</ele>
        <time>2020-03-21T13:28:37Z</time>
      </trkpt>
      <trkpt lat="59.216995380079" lon="17.908010486792">
        <ele>3.4</ele>
        <time>2020-03-21T13:28:39Z</time>
      </trkpt>
      <trkpt lat="59.217056903225" lon="17.908199750094">
        <ele>3.6</ele>
        <time>2020-03-21T13:28:45Z</time>
      </trkpt>
      <trkpt lat="59.21711180467" lon="17.908385073903">
        <ele>4.4</ele>
        <time>2020-03-21T13:28:51Z</time>
      </trkpt>
      <trkpt lat="59.21719646186" lon="17.908601243104">
        <ele>5</ele>
        <time>2020-03-21T13:28:58Z</time>
      </trkpt>
      <trkpt lat="59.217249519287" lon="17.908702077361">
        <ele>5.4</ele>
        <time>2020-03-21T13:29:02Z</time>
      </trkpt>
      <trkpt lat="59.217272066598" lon="17.908758403729">
        <ele>5.2</ele>
        <time>2020-03-21T13:29:04Z</time>
      </trkpt>
      <trkpt lat="59.217302157619" lon="17.908824201644">
        <ele>5.4</ele>
        <time>2020-03-21T13:29:06Z</time>
      </trkpt>
      <trkpt lat="59.217344402395" lon="17.908891089206">
        <ele>5.6</ele>
        <time>2020-03-21T13:29:09Z</time>
      </trkpt>
      <trkpt lat="59.217402572781" lon="17.909008603444">
        <ele>5.6</ele>
        <time>2020-03-21T13:29:14Z</time>
      </trkpt>
      <trkpt lat="59.217437609123" lon="17.909105079113">
        <ele>6.4</ele>
        <time>2020-03-21T13:29:18Z</time>
      </trkpt>
      <trkpt lat="59.217454121466" lon="17.909152101572">
        <ele>6.6</ele>
        <time>2020-03-21T13:29:20Z</time>
      </trkpt>
      <trkpt lat="59.217485302134" lon="17.909208260302">
        <ele>6.6</ele>
        <time>2020-03-21T13:29:23Z</time>
      </trkpt>
      <trkpt lat="59.217499132269" lon="17.909238686599">
        <ele>7</ele>
        <time>2020-03-21T13:29:25Z</time>
      </trkpt>
      <trkpt lat="59.217528468919" lon="17.909294510053">
        <ele>6.8</ele>
        <time>2020-03-21T13:29:29Z</time>
      </trkpt>
      <trkpt lat="59.217568534401" lon="17.90939450612">
        <ele>6.4</ele>
        <time>2020-03-21T13:29:34Z</time>
      </trkpt>
      <trkpt lat="59.217606001494" lon="17.909476062007">
        <ele>7.6</ele>
        <time>2020-03-21T13:29:39Z</time>
      </trkpt>
      <trkpt lat="59.217626118054" lon="17.909512187996">
        <ele>7.8</ele>
        <time>2020-03-21T13:29:41Z</time>
      </trkpt>
      <trkpt lat="59.217700381688" lon="17.909688375534">
        <ele>8</ele>
        <time>2020-03-21T13:29:47Z</time>
      </trkpt>
      <trkpt lat="59.217722174628" lon="17.909706731895">
        <ele>8.2</ele>
        <time>2020-03-21T13:29:49Z</time>
      </trkpt>
      <trkpt lat="59.217744973396" lon="17.909760711331">
        <ele>8.4</ele>
        <time>2020-03-21T13:29:52Z</time>
      </trkpt>
      <trkpt lat="59.217777411349" lon="17.909837573354">
        <ele>8.6</ele>
        <time>2020-03-21T13:29:56Z</time>
      </trkpt>
      <trkpt lat="59.217810771311" lon="17.909917452861">
        <ele>8.4</ele>
        <time>2020-03-21T13:29:59Z</time>
      </trkpt>
      <trkpt lat="59.217860811254" lon="17.910016191643">
        <ele>8</ele>
        <time>2020-03-21T13:30:04Z</time>
      </trkpt>
      <trkpt lat="59.217936080716" lon="17.910139824668">
        <ele>8.6</ele>
        <time>2020-03-21T13:30:10Z</time>
      </trkpt>
      <trkpt lat="59.21803549005" lon="17.910086599603">
        <ele>9.2</ele>
        <time>2020-03-21T13:30:15Z</time>
      </trkpt>
      <trkpt lat="59.218092989884" lon="17.910012000693">
        <ele>9.6</ele>
        <time>2020-03-21T13:30:19Z</time>
      </trkpt>
      <trkpt lat="59.218104053992" lon="17.91000219387">
        <ele>9.6</ele>
        <time>2020-03-21T13:30:20Z</time>
      </trkpt>
      <trkpt lat="59.218160045084" lon="17.909926840589">
        <ele>10</ele>
        <time>2020-03-21T13:30:27Z</time>
      </trkpt>
      <trkpt lat="59.218237158564" lon="17.909806644143">
        <ele>10.4</ele>
        <time>2020-03-21T13:30:34Z</time>
      </trkpt>
      <trkpt lat="59.2183246656" lon="17.909640514885">
        <ele>10.2</ele>
        <time>2020-03-21T13:30:41Z</time>
      </trkpt>
      <trkpt lat="59.21835400225" lon="17.909564491052">
        <ele>9.2</ele>
        <time>2020-03-21T13:30:45Z</time>
      </trkpt>
      <trkpt lat="59.218359199028" lon="17.909545547958">
        <ele>9</ele>
        <time>2020-03-21T13:30:46Z</time>
      </trkpt>
      <trkpt lat="59.218384428547" lon="17.909487880486">
        <ele>8.6</ele>
        <time>2020-03-21T13:30:48Z</time>
      </trkpt>
      <trkpt lat="59.218401192347" lon="17.9093961825">
        <ele>8.2</ele>
        <time>2020-03-21T13:30:51Z</time>
      </trkpt>
      <trkpt lat="59.218413597559" lon="17.909370114791">
        <ele>8</ele>
        <time>2020-03-21T13:30:52Z</time>
      </trkpt>
      <trkpt lat="59.218430780454" lon="17.909303394867">
        <ele>7.4</ele>
        <time>2020-03-21T13:30:54Z</time>
      </trkpt>
      <trkpt lat="59.218429858445" lon="17.909264754308">
        <ele>7.2</ele>
        <time>2020-03-21T13:30:55Z</time>
      </trkpt>
      <trkpt lat="59.218471181212" lon="17.909103821828">
        <ele>6.2</ele>
        <time>2020-03-21T13:31:00Z</time>
      </trkpt>
      <trkpt lat="59.218476880904" lon="17.909073730807">
        <ele>5.8</ele>
        <time>2020-03-21T13:31:01Z</time>
      </trkpt>
      <trkpt lat="59.218491884505" lon="17.908998712802">
        <ele>5.2</ele>
        <time>2020-03-21T13:31:03Z</time>
      </trkpt>
      <trkpt lat="59.218514767092" lon="17.908867787524">
        <ele>4.4</ele>
        <time>2020-03-21T13:31:06Z</time>
      </trkpt>
      <trkpt lat="59.218525076829" lon="17.908764773973">
        <ele>4</ele>
        <time>2020-03-21T13:31:08Z</time>
      </trkpt>
      <trkpt lat="59.218547288864" lon="17.908632256134">
        <ele>3.4</ele>
        <time>2020-03-21T13:31:11Z</time>
      </trkpt>
      <trkpt lat="59.218549049063" lon="17.908606356063">
        <ele>2.8</ele>
        <time>2020-03-21T13:31:12Z</time>
      </trkpt>
      <trkpt lat="59.218562292465" lon="17.908572074092">
        <ele>2.4</ele>
        <time>2020-03-21T13:31:13Z</time>
      </trkpt>
      <trkpt lat="59.218578720989" lon="17.908519351941">
        <ele>2.2</ele>
        <time>2020-03-21T13:31:15Z</time>
      </trkpt>
      <trkpt lat="59.218608309096" lon="17.908447854334">
        <ele>1.8</ele>
        <time>2020-03-21T13:31:17Z</time>
      </trkpt>
      <trkpt lat="59.218620630489" lon="17.908381553505">
        <ele>1.2</ele>
        <time>2020-03-21T13:31:20Z</time>
      </trkpt>
      <trkpt lat="59.218625659629" lon="17.908356659262">
        <ele>0.4</ele>
        <time>2020-03-21T13:31:21Z</time>
      </trkpt>
      <trkpt lat="59.218656505021" lon="17.908263117258">
        <ele>0</ele>
        <time>2020-03-21T13:31:24Z</time>
      </trkpt>
      <trkpt lat="59.218663881093" lon="17.908225063432">
        <ele>0</ele>
        <time>2020-03-21T13:31:25Z</time>
      </trkpt>
      <trkpt lat="59.218700007082" lon="17.90807854782">
        <ele>0</ele>
        <time>2020-03-21T13:31:28Z</time>
      </trkpt>
      <trkpt lat="59.218735881614" lon="17.908009145688">
        <ele>0</ele>
        <time>2020-03-21T13:31:30Z</time>
      </trkpt>
      <trkpt lat="59.218746694265" lon="17.907986095463">
        <ele>0</ele>
        <time>2020-03-21T13:31:31Z</time>
      </trkpt>
      <trkpt lat="59.218764380074" lon="17.907936223158">
        <ele>0</ele>
        <time>2020-03-21T13:31:33Z</time>
      </trkpt>
      <trkpt lat="59.218772929612" lon="17.907916358055">
        <ele>0</ele>
        <time>2020-03-21T13:31:34Z</time>
      </trkpt>
      <trkpt lat="59.218828753066" lon="17.907841507688">
        <ele>0</ele>
        <time>2020-03-21T13:31:39Z</time>
      </trkpt>
      <trkpt lat="59.218847612341" lon="17.907845363362">
        <ele>0</ele>
        <time>2020-03-21T13:31:40Z</time>
      </trkpt>
      <trkpt lat="59.218865381969" lon="17.907863719723">
        <ele>0</ele>
        <time>2020-03-21T13:31:41Z</time>
      </trkpt>
      <trkpt lat="59.218930257875" lon="17.907987855662">
        <ele>0</ele>
        <time>2020-03-21T13:31:44Z</time>
      </trkpt>
      <trkpt lat="59.218962947285" lon="17.908080140381">
        <ele>0</ele>
        <time>2020-03-21T13:31:46Z</time>
      </trkpt>
      <trkpt lat="59.219007119898" lon="17.90814811759">
        <ele>0</ele>
        <time>2020-03-21T13:31:49Z</time>
      </trkpt>
      <trkpt lat="59.219018519282" lon="17.908166138675">
        <ele>0</ele>
        <time>2020-03-21T13:31:50Z</time>
      </trkpt>
      <trkpt lat="59.219070738519" lon="17.908226572174">
        <ele>0</ele>
        <time>2020-03-21T13:31:54Z</time>
      </trkpt>
      <trkpt lat="59.219079707152" lon="17.90824534763">
        <ele>0</ele>
        <time>2020-03-21T13:31:55Z</time>
      </trkpt>
      <trkpt lat="59.219109043802" lon="17.908299075609">
        <ele>0</ele>
        <time>2020-03-21T13:31:58Z</time>
      </trkpt>
      <trkpt lat="59.219134189502" lon="17.908363113325">
        <ele>0</ele>
        <time>2020-03-21T13:32:00Z</time>
      </trkpt>
      <trkpt lat="59.219210045697" lon="17.908545503469">
        <ele>0</ele>
        <time>2020-03-21T13:32:05Z</time>
      </trkpt>
      <trkpt lat="59.219226138945" lon="17.908574504843">
        <ele>0</ele>
        <time>2020-03-21T13:32:06Z</time>
      </trkpt>
      <trkpt lat="59.219333678722" lon="17.908818837228">
        <ele>0</ele>
        <time>2020-03-21T13:32:13Z</time>
      </trkpt>
      <trkpt lat="59.219399895732" lon="17.90895613275">
        <ele>0</ele>
        <time>2020-03-21T13:32:17Z</time>
      </trkpt>
      <trkpt lat="59.219453036978" lon="17.909075574825">
        <ele>0</ele>
        <time>2020-03-21T13:32:23Z</time>
      </trkpt>
      <trkpt lat="59.219520595092" lon="17.909207338293">
        <ele>0</ele>
        <time>2020-03-21T13:32:28Z</time>
      </trkpt>
      <trkpt lat="59.219594607269" lon="17.909393248835">
        <ele>0</ele>
        <time>2020-03-21T13:32:33Z</time>
      </trkpt>
      <trkpt lat="59.219631236172" lon="17.909506488304">
        <ele>0</ele>
        <time>2020-03-21T13:32:35Z</time>
      </trkpt>
      <trkpt lat="59.219675744061" lon="17.909612016425">
        <ele>0</ele>
        <time>2020-03-21T13:32:38Z</time>
      </trkpt>
      <trkpt lat="59.219687059626" lon="17.90961578828">
        <ele>0</ele>
        <time>2020-03-21T13:32:39Z</time>
      </trkpt>
      <trkpt lat="59.219723437072" lon="17.909626768569">
        <ele>0</ele>
        <time>2020-03-21T13:32:42Z</time>
      </trkpt>
      <trkpt lat="59.219781272182" lon="17.909638335591">
        <ele>0</ele>
        <time>2020-03-21T13:32:47Z</time>
      </trkpt>
      <trkpt lat="59.219853188884" lon="17.909642442722">
        <ele>0</ele>
        <time>2020-03-21T13:32:51Z</time>
      </trkpt>
      <trkpt lat="59.219866683743" lon="17.909642442722">
        <ele>0</ele>
        <time>2020-03-21T13:32:52Z</time>
      </trkpt>
      <trkpt lat="59.219878837498" lon="17.909615117728">
        <ele>0</ele>
        <time>2020-03-21T13:32:53Z</time>
      </trkpt>
      <trkpt lat="59.219932062563" lon="17.909525012303">
        <ele>0</ele>
        <time>2020-03-21T13:32:56Z</time>
      </trkpt>
      <trkpt lat="59.219950670381" lon="17.909489808323">
        <ele>0</ele>
        <time>2020-03-21T13:32:57Z</time>
      </trkpt>
      <trkpt lat="59.219997022288" lon="17.909388219695">
        <ele>0</ele>
        <time>2020-03-21T13:33:01Z</time>
      </trkpt>
      <trkpt lat="59.220064161307" lon="17.909260060444">
        <ele>0</ele>
        <time>2020-03-21T13:33:06Z</time>
      </trkpt>
      <trkpt lat="59.220147142117" lon="17.909094266462">
        <ele>0</ele>
        <time>2020-03-21T13:33:12Z</time>
      </trkpt>
      <trkpt lat="59.220225093787" lon="17.9089687056">
        <ele>0</ele>
        <time>2020-03-21T13:33:17Z</time>
      </trkpt>
      <trkpt lat="59.220311678814" lon="17.908794697356">
        <ele>0</ele>
        <time>2020-03-21T13:33:23Z</time>
      </trkpt>
      <trkpt lat="59.220364903879" lon="17.908668885037">
        <ele>0</ele>
        <time>2020-03-21T13:33:28Z</time>
      </trkpt>
      <trkpt lat="59.220360964386" lon="17.908582551467">
        <ele>0</ele>
        <time>2020-03-21T13:33:30Z</time>
      </trkpt>
      <trkpt lat="59.220354426504" lon="17.908496720811">
        <ele>0</ele>
        <time>2020-03-21T13:33:32Z</time>
      </trkpt>
      <trkpt lat="59.220289969693" lon="17.908344505507">
        <ele>0</ele>
        <time>2020-03-21T13:33:37Z</time>
      </trkpt>
      <trkpt lat="59.220169018876" lon="17.908145770658">
        <ele>0</ele>
        <time>2020-03-21T13:33:41Z</time>
      </trkpt>
      <trkpt lat="59.220022503264" lon="17.907844022258">
        <ele>0</ele>
        <time>2020-03-21T13:33:46Z</time>
      </trkpt>
      <trkpt lat="59.219908677062" lon="17.907552918871">
        <ele>0</ele>
        <time>2020-03-21T13:33:51Z</time>
      </trkpt>
      <trkpt lat="59.219778673793" lon="17.907241279829">
        <ele>0</ele>
        <time>2020-03-21T13:33:57Z</time>
      </trkpt>
      <trkpt lat="59.219757886681" lon="17.907174811362">
        <ele>0</ele>
        <time>2020-03-21T13:34:01Z</time>
      </trkpt>
      <trkpt lat="59.219751013523" lon="17.907167770566">
        <ele>0</ele>
        <time>2020-03-21T13:34:06Z</time>
      </trkpt>
      <trkpt lat="59.219759227785" lon="17.90719677194">
        <ele>0</ele>
        <time>2020-03-21T13:34:08Z</time>
      </trkpt>
    </trkseg>
  </trk>
</gpx>